Time;durP1;ratioP1;P1;durP2;ratioP2;P2;SDS_P1;SDS_P2;PMS_P1;PMS_P2;Temp;Humidity;BMP_temperature;BMP_pressure;BME280_temperature;BME280_humidity;BME280_pressure;Samples;Min_cycle;Max_cycle;Signal;HPM_P1;HPM_P2
2021/05/19 00:01:00;;;;;;;1.00;1.00;;;12.70;8.40;;;;;;5024395;28;20466;-81
2021/05/19 00:03:28;;;;;;;0.90;0.90;;;12.70;3.80;;;;;;5025931;28;20479;-79
2021/05/19 00:05:56;;;;;;;0.90;0.90;;;12.70;1.00;;;;;;5022461;28;20561;-81
2021/05/19 00:08:23;;;;;;;0.90;0.90;;;12.70;2.10;;;;;;5027594;28;20552;-86
2021/05/19 00:10:51;;;;;;;1.30;0.97;;;12.70;1.00;;;;;;5028013;28;20533;-79
2021/05/19 00:13:19;;;;;;;0.90;0.90;;;12.60;1.00;;;;;;5026098;28;20486;-80
2021/05/19 00:15:46;;;;;;;0.83;0.83;;;12.60;1.00;;;;;;5029969;28;20484;-81
2021/05/19 00:18:15;;;;;;;1.10;1.00;;;12.60;1.00;;;;;;5027383;28;20458;-80
2021/05/19 00:20:43;;;;;;;1.00;0.77;;;12.60;1.00;;;;;;5026837;28;20504;-82
2021/05/19 00:23:11;;;;;;;1.10;0.90;;;12.60;9.00;;;;;;5022153;28;20488;-81
2021/05/19 00:25:38;;;;;;;1.00;0.90;;;12.70;1.00;;;;;;5058765;28;20853;-83
2021/05/19 00:28:06;;;;;;;0.90;0.80;;;12.70;1.00;;;;;;5028170;28;20462;-81
2021/05/19 00:30:36;;;;;;;1.33;0.80;;;12.80;1.00;;;;;;5023276;28;20456;-82
2021/05/19 00:33:04;;;;;;;1.00;1.00;;;12.80;1.00;;;;;;5026814;28;20486;-82
2021/05/19 00:35:33;;;;;;;1.00;0.90;;;12.80;1.00;;;;;;5022129;28;20467;-84
2021/05/19 00:38:01;;;;;;;1.20;1.10;;;12.80;1.00;;;;;;5027964;28;20620;-84
2021/05/19 00:40:29;;;;;;;0.83;0.83;;;12.80;1.00;;;;;;5024036;28;20473;-81
2021/05/19 00:42:58;;;;;;;1.00;1.00;;;12.80;1.00;;;;;;5027604;28;20478;-83
2021/05/19 00:45:26;;;;;;;0.83;0.80;;;12.80;1.00;;;;;;5026981;28;20487;-82
2021/05/19 00:47:53;;;;;;;0.90;0.90;;;12.80;1.00;;;;;;5025362;28;20498;-84
2021/05/19 00:50:23;;;;;;;0.87;0.87;;;12.80;1.00;;;;;;5024982;28;20470;-82
2021/05/19 00:52:51;;;;;;;1.20;1.10;;;12.70;1.00;;;;;;5026520;28;20490;-80
2021/05/19 00:55:19;;;;;;;1.00;1.00;;;12.60;1.00;;;;;;5024531;28;20464;-81
2021/05/19 00:57:50;;;;;;;2.13;0.80;;;12.60;1.00;;;;;;5026297;28;20495;-83
2021/05/19 01:00:20;;;;;;;1.10;1.00;;;12.50;1.00;;;;;;5028225;28;20468;-84
2021/05/19 01:02:48;;;;;;;1.07;0.80;;;12.50;1.00;;;;;;5025767;28;21048;-81
2021/05/19 01:05:21;;;;;;;0.97;0.90;;;12.40;1.00;;;;;;5023292;28;20517;-83
2021/05/19 01:10:35;;;;;;;2.70;0.93;;;12.40;1.00;;;;;;5034956;28;20457;-80
2021/05/19 01:13:02;;;;;;;1.10;0.80;;;12.40;1.00;;;;;;5021708;28;20476;-80
2021/05/19 01:15:30;;;;;;;0.80;0.80;;;12.50;1.00;;;;;;5026341;28;20536;-84
2021/05/19 01:17:58;;;;;;;0.90;0.90;;;12.60;1.00;;;;;;5023794;28;20837;-81
2021/05/19 01:20:26;;;;;;;1.20;1.10;;;12.60;1.00;;;;;;5022827;28;20460;-80
2021/05/19 01:22:55;;;;;;;0.83;0.83;;;12.60;1.00;;;;;;5024008;28;20996;-80
2021/05/19 01:25:23;;;;;;;0.90;0.80;;;12.60;1.00;;;;;;5024134;28;20449;-81
2021/05/19 01:27:52;;;;;;;1.60;0.83;;;12.60;1.00;;;;;;5020985;28;20478;-82
2021/05/19 01:30:21;;;;;;;1.73;0.80;;;12.60;1.00;;;;;;5028354;28;20491;-82
2021/05/19 01:32:49;;;;;;;1.60;0.90;;;12.50;1.00;;;;;;5025850;28;20479;-81
2021/05/19 01:35:17;;;;;;;0.87;0.87;;;12.70;1.00;;;;;;5027854;28;20461;-82
2021/05/19 01:37:46;;;;;;;1.20;1.10;;;12.50;1.00;;;;;;5022681;28;20508;-82
2021/05/19 01:40:17;;;;;;;0.87;0.87;;;12.40;1.00;;;;;;5025132;28;20462;-81
2021/05/19 01:42:46;;;;;;;1.53;0.90;;;12.50;1.00;;;;;;5027688;28;20907;-81
2021/05/19 01:45:16;;;;;;;1.20;1.10;;;12.40;1.00;;;;;;5028800;28;20552;-82
2021/05/19 01:47:47;;;;;;;0.80;0.80;;;12.50;1.00;;;;;;5023346;28;20478;-82
2021/05/19 01:50:16;;;;;;;1.20;1.10;;;12.40;1.00;;;;;;5043515;28;20485;-81
2021/05/19 01:52:45;;;;;;;1.10;1.00;;;12.40;1.00;;;;;;5026733;28;20477;-81
2021/05/19 01:55:16;;;;;;;0.80;0.80;;;12.50;1.00;;;;;;5025767;28;20508;-79
2021/05/19 01:57:45;;;;;;;1.07;0.97;;;12.50;1.00;;;;;;5024688;28;20453;-83
2021/05/19 02:00:14;;;;;;;0.83;0.83;;;12.50;1.00;;;;;;5027175;28;20470;-82
2021/05/19 02:02:42;;;;;;;0.93;0.90;;;12.40;1.00;;;;;;5021288;28;20539;-81
2021/05/19 02:05:12;;;;;;;1.10;1.00;;;12.30;1.00;;;;;;5026185;28;21034;-79
2021/05/19 02:07:40;;;;;;;0.80;0.80;;;12.20;1.00;;;;;;5020825;28;20481;-78
2021/05/19 02:10:10;;;;;;;0.80;0.80;;;12.20;1.00;;;;;;5018005;28;20454;-78
2021/05/19 02:12:38;;;;;;;1.20;1.10;;;12.20;1.00;;;;;;5017534;28;20478;-78
2021/05/19 02:15:07;;;;;;;1.20;1.10;;;12.30;1.00;;;;;;5018169;28;20952;-80
2021/05/19 02:17:34;;;;;;;1.43;0.80;;;12.30;1.00;;;;;;5052788;28;20763;-79
2021/05/19 02:20:07;;;;;;;0.80;0.77;;;12.20;1.00;;;;;;5022596;28;20457;-80
2021/05/19 02:22:35;;;;;;;1.97;0.90;;;12.20;1.00;;;;;;5021225;28;20488;-79
2021/05/19 02:25:04;;;;;;;0.90;0.80;;;12.20;1.00;;;;;;5022915;28;20454;-82
2021/05/19 02:27:33;;;;;;;1.00;0.83;;;12.20;1.00;;;;;;5023825;28;20536;-80
2021/05/19 02:30:03;;;;;;;1.43;1.10;;;12.40;1.00;;;;;;5022770;28;21663;-79
2021/05/19 02:32:31;;;;;;;1.50;1.13;;;12.40;1.00;;;;;;5018532;28;20478;-79
2021/05/19 02:34:58;;;;;;;0.77;0.77;;;12.30;1.00;;;;;;5023015;28;20452;-80
2021/05/19 02:37:26;;;;;;;0.90;0.90;;;12.30;1.00;;;;;;5021358;28;20448;-78
2021/05/19 02:39:54;;;;;;;1.70;1.00;;;12.20;1.00;;;;;;5021113;28;20546;-79
2021/05/19 02:42:22;;;;;;;1.27;1.13;;;12.20;1.00;;;;;;5019904;28;20489;-78
2021/05/19 02:44:50;;;;;;;1.20;1.00;;;12.10;1.00;;;;;;5020009;28;21543;-79
2021/05/19 02:47:19;;;;;;;1.40;1.00;;;12.20;1.00;;;;;;5019148;28;20577;-79
2021/05/19 02:49:47;;;;;;;1.10;0.90;;;12.10;1.00;;;;;;5021783;28;20466;-78
2021/05/19 02:52:14;;;;;;;0.80;0.80;;;12.10;1.00;;;;;;5020677;28;20484;-80
2021/05/19 02:54:42;;;;;;;0.80;0.80;;;12.10;1.00;;;;;;5038520;28;20849;-80
2021/05/19 02:57:10;;;;;;;2.00;1.00;;;12.20;1.00;;;;;;5020867;28;20573;-79
2021/05/19 02:59:37;;;;;;;1.00;1.00;;;12.20;1.00;;;;;;5021842;28;20473;-78
2021/05/19 03:02:09;;;;;;;0.80;0.80;;;12.20;1.00;;;;;;5054878;28;20484;-81
2021/05/19 03:04:38;;;;;;;1.43;1.00;;;12.20;1.00;;;;;;5021430;28;20474;-80
2021/05/19 03:07:06;;;;;;;1.27;1.17;;;12.10;1.00;;;;;;5022652;28;20484;-79
2021/05/19 03:09:34;;;;;;;0.97;0.90;;;12.10;1.00;;;;;;5024527;28;20507;-79
2021/05/19 03:12:01;;;;;;;1.20;1.10;;;12.20;1.00;;;;;;5024096;28;20478;-79
2021/05/19 03:14:29;;;;;;;0.93;0.87;;;12.20;1.00;;;;;;5025209;28;20464;-79
2021/05/19 03:17:01;;;;;;;0.90;0.90;;;12.10;1.00;;;;;;5028396;28;20460;-79
2021/05/19 03:19:29;;;;;;;1.03;1.03;;;12.10;1.00;;;;;;5024566;28;21033;-79
2021/05/19 03:21:57;;;;;;;0.90;0.90;;;12.10;1.00;;;;;;5025793;28;20485;-77
2021/05/19 03:24:25;;;;;;;1.63;1.00;;;12.10;1.00;;;;;;5057402;28;20474;-82
2021/05/19 03:26:53;;;;;;;0.97;0.90;;;12.20;1.00;;;;;;5037559;28;20491;-78
2021/05/19 03:29:21;;;;;;;0.87;0.87;;;12.20;1.00;;;;;;5025807;28;20539;-80
2021/05/19 03:31:48;;;;;;;0.80;0.80;;;12.10;1.00;;;;;;5058712;28;20487;-78
2021/05/19 03:34:16;;;;;;;1.37;1.20;;;12.00;1.00;;;;;;5020650;28;20468;-80
2021/05/19 03:36:44;;;;;;;1.30;1.20;;;11.80;1.00;;;;;;5022856;28;20462;-79
2021/05/19 03:39:14;;;;;;;1.03;1.03;;;11.90;55.50;;;;;;5021456;28;20819;-79
2021/05/19 03:41:42;;;;;;;1.50;1.07;;;12.10;28.80;;;;;;5026345;28;20499;-80
2021/05/19 03:44:10;;;;;;;1.07;1.00;;;11.90;48.10;;;;;;5023468;28;20460;-79
2021/05/19 03:46:38;;;;;;;1.00;0.90;;;11.90;23.70;;;;;;5029146;28;20465;-79
2021/05/19 03:49:06;;;;;;;0.90;0.90;;;11.90;11.40;;;;;;5021914;28;20487;-79
2021/05/19 03:51:35;;;;;;;1.53;1.23;;;11.80;20.80;;;;;;5024363;28;21052;-79
2021/05/19 03:54:04;;;;;;;2.73;1.20;;;11.90;91.70;;;;;;5024073;28;20970;-79
2021/05/19 03:56:33;;;;;;;1.73;1.00;;;11.80;75.10;;;;;;5023569;28;20450;-80
2021/05/19 03:59:00;;;;;;;1.50;1.40;;;11.70;99.90;;;;;;5017921;28;20461;-80
2021/05/19 04:01:28;;;;;;;1.40;1.30;;;11.70;99.90;;;;;;5019908;28;20457;-78
2021/05/19 04:03:56;;;;;;;1.30;1.20;;;11.80;99.90;;;;;;5023843;28;20200;-78
2021/05/19 04:06:24;;;;;;;1.00;1.00;;;11.90;28.70;;;;;;5021945;28;20510;-79
2021/05/19 04:08:52;;;;;;;1.53;1.27;;;11.90;29.80;;;;;;5025756;28;20491;-79
2021/05/19 04:11:20;;;;;;;2.50;1.83;;;11.90;43.50;;;;;;5026576;28;20962;-76
2021/05/19 04:13:49;;;;;;;1.40;1.30;;;11.80;55.20;;;;;;5022459;28;20517;-78
2021/05/19 04:16:16;;;;;;;1.60;1.50;;;11.70;83.10;;;;;;5025023;28;20463;-79
2021/05/19 04:18:44;;;;;;;1.20;1.10;;;11.60;99.90;;;;;;5023393;28;20487;-79
2021/05/19 04:21:12;;;;;;;1.33;1.20;;;11.70;99.90;;;;;;5022594;28;20455;-77
2021/05/19 04:23:40;;;;;;;1.20;1.10;;;11.70;99.90;;;;;;5026631;28;20534;-80
2021/05/19 04:26:08;;;;;;;1.40;1.30;;;11.70;99.90;;;;;;5023398;28;20476;-79
2021/05/19 04:28:36;;;;;;;1.40;1.10;;;11.80;99.90;;;;;;5049239;28;20575;-77
2021/05/19 04:31:04;;;;;;;1.60;1.30;;;11.90;99.90;;;;;;5056534;28;20465;-75
2021/05/19 04:33:32;;;;;;;1.20;1.10;;;12.00;36.60;;;;;;5022060;28;20495;-78
2021/05/19 04:36:00;;;;;;;1.40;1.30;;;12.00;22.70;;;;;;5020084;28;20460;-78
2021/05/19 04:38:28;;;;;;;3.03;1.23;;;12.10;1.00;;;;;;5020526;28;20450;-79
2021/05/19 04:40:55;;;;;;;1.30;1.20;;;12.10;1.00;;;;;;5023508;28;20949;-78
2021/05/19 04:43:23;;;;;;;1.30;1.20;;;12.10;1.00;;;;;;5058262;28;20483;-77
2021/05/19 04:45:51;;;;;;;1.43;1.33;;;12.20;1.00;;;;;;5027896;28;20529;-79
2021/05/19 04:48:19;;;;;;;1.27;1.10;;;12.00;1.00;;;;;;5021436;28;20495;-77
2021/05/19 04:50:47;;;;;;;1.30;1.20;;;11.90;1.00;;;;;;5057802;28;20882;-77
2021/05/19 04:53:15;;;;;;;1.27;1.23;;;12.00;1.00;;;;;;5022326;28;20480;-78
2021/05/19 04:55:42;;;;;;;1.50;1.40;;;11.90;1.00;;;;;;5023302;28;20461;-77
2021/05/19 04:58:10;;;;;;;1.67;1.50;;;12.00;25.00;;;;;;5025320;28;20478;-78
2021/05/19 05:00:38;;;;;;;2.13;1.57;;;11.90;19.60;;;;;;5024722;28;20461;-81
2021/05/19 05:03:06;;;;;;;1.50;1.40;;;12.00;8.70;;;;;;5024508;28;20475;-77
2021/05/19 05:05:35;;;;;;;1.97;1.50;;;12.00;51.80;;;;;;5027590;28;20451;-78
2021/05/19 05:08:03;;;;;;;2.13;1.50;;;12.00;44.20;;;;;;5025025;28;20490;-78
2021/05/19 05:10:30;;;;;;;1.80;1.60;;;12.00;24.60;;;;;;5023056;28;20459;-77
2021/05/19 05:12:58;;;;;;;2.30;2.17;;;12.00;17.10;;;;;;5021666;28;20956;-79
2021/05/19 05:15:26;;;;;;;2.57;1.90;;;12.10;30.40;;;;;;5019395;28;20557;-79
2021/05/19 05:17:54;;;;;;;2.20;1.90;;;12.10;1.00;;;;;;5023167;28;20513;-78
2021/05/19 05:20:23;;;;;;;1.57;1.47;;;12.20;8.70;;;;;;5021656;28;20454;-78
2021/05/19 05:22:52;;;;;;;2.47;1.70;;;12.30;17.20;;;;;;5023615;28;20476;-76
2021/05/19 05:25:22;;;;;;;5.43;2.40;;;12.40;1.00;;;;;;5021215;28;20476;-79
2021/05/19 05:27:50;;;;;;;2.00;1.83;;;12.50;1.00;;;;;;5019053;28;21079;-77
2021/05/19 05:30:19;;;;;;;3.13;2.33;;;12.50;1.00;;;;;;5017844;28;21029;-78
2021/05/19 05:32:46;;;;;;;1.70;1.60;;;12.50;1.00;;;;;;5019486;28;20486;-79
2021/05/19 05:35:15;;;;;;;2.97;1.63;;;12.60;1.00;;;;;;5018716;28;20523;-78
2021/05/19 05:37:42;;;;;;;2.00;1.90;;;12.60;1.00;;;;;;5018552;28;20458;-79
2021/05/19 05:40:12;;;;;;;2.50;2.40;;;12.60;1.00;;;;;;5023513;28;20500;-78
2021/05/19 05:42:39;;;;;;;2.20;2.03;;;12.60;1.00;;;;;;5022376;28;20564;-79
2021/05/19 05:45:08;;;;;;;1.77;1.60;;;12.60;1.00;;;;;;5021549;28;20494;-80
2021/05/19 05:47:36;;;;;;;2.63;2.33;;;12.50;1.00;;;;;;5035959;28;20492;-77
2021/05/19 05:50:05;;;;;;;2.90;2.10;;;12.40;1.00;;;;;;5021037;28;20554;-79
2021/05/19 05:52:33;;;;;;;2.77;2.30;;;12.20;1.00;;;;;;5025408;28;20478;-79
2021/05/19 05:55:00;;;;;;;2.40;1.90;;;12.50;1.00;;;;;;5018820;28;20467;-78
2021/05/19 05:57:30;;;;;;;1.90;1.80;;;12.50;1.00;;;;;;5017734;28;20470;-79
2021/05/19 05:59:57;;;;;;;3.50;2.43;;;12.40;1.00;;;;;;5020517;28;20449;-80
2021/05/19 06:02:25;;;;;;;1.63;1.53;;;12.40;1.00;;;;;;5019710;28;20947;-79
2021/05/19 06:04:53;;;;;;;2.43;1.87;;;12.40;1.00;;;;;;5020604;28;20994;-78
2021/05/19 06:07:20;;;;;;;1.67;1.57;;;12.30;1.00;;;;;;5022301;28;21024;-76
2021/05/19 06:09:52;;;;;;;3.33;1.77;;;12.40;1.00;;;;;;5020955;28;20463;-78
2021/05/19 06:12:20;;;;;;;1.70;1.60;;;12.50;1.00;;;;;;5019739;28;20563;-77
2021/05/19 06:14:49;;;;;;;2.73;1.90;;;12.50;1.00;;;;;;5035651;28;20469;-78
2021/05/19 06:17:20;;;;;;;1.73;1.60;;;12.60;1.00;;;;;;5027223;28;20519;-79
2021/05/19 06:19:48;;;;;;;1.83;1.70;;;12.70;1.00;;;;;;5019841;28;20545;-80
2021/05/19 06:22:16;;;;;;;2.17;1.97;;;12.70;1.00;;;;;;5022439;28;20873;-79
2021/05/19 06:24:44;;;;;;;2.57;2.17;;;12.80;1.00;;;;;;5020427;28;20892;-83
2021/05/19 06:27:12;;;;;;;2.90;2.20;;;12.90;1.00;;;;;;5022719;28;20888;-77
2021/05/19 06:29:39;;;;;;;1.90;1.70;;;13.00;1.00;;;;;;5018897;28;21132;-78
2021/05/19 06:32:09;;;;;;;2.40;1.53;;;13.10;1.00;;;;;;5035299;28;20971;-80
2021/05/19 06:34:37;;;;;;;1.50;1.40;;;13.20;1.00;;;;;;5020912;28;20460;-77
2021/05/19 06:37:05;;;;;;;2.20;1.53;;;13.30;1.00;;;;;;5018032;28;20464;-79
2021/05/19 06:39:33;;;;;;;1.50;1.40;;;13.30;1.00;;;;;;5015835;28;20463;-78
2021/05/19 06:42:01;;;;;;;3.30;1.70;;;13.40;1.00;;;;;;5019052;28;21056;-79
2021/05/19 06:44:29;;;;;;;1.70;1.40;;;13.40;1.00;;;;;;5023441;28;20843;-77
2021/05/19 06:46:57;;;;;;;1.40;1.30;;;13.40;1.00;;;;;;5023525;28;20469;-79
2021/05/19 06:49:25;;;;;;;2.40;1.60;;;13.00;1.00;;;;;;5040160;28;20493;-80
2021/05/19 06:51:53;;;;;;;1.50;1.40;;;13.10;1.00;;;;;;5023926;28;21143;-78
2021/05/19 06:54:22;;;;;;;1.47;1.37;;;13.20;1.00;;;;;;5026557;28;20463;-78
2021/05/19 06:56:50;;;;;;;1.73;1.30;;;13.40;1.00;;;;;;5025521;28;20460;-79
2021/05/19 06:59:19;;;;;;;1.80;1.70;;;13.60;1.00;;;;;;5025562;28;20462;-78
2021/05/19 07:01:47;;;;;;;1.40;1.20;;;14.00;1.00;;;;;;5024062;28;20481;-78
2021/05/19 07:04:17;;;;;;;1.47;1.10;;;14.30;1.00;;;;;;5027911;28;20458;-78
2021/05/19 07:06:45;;;;;;;1.40;1.30;;;14.40;1.00;;;;;;5026742;28;20452;-75
2021/05/19 07:09:13;;;;;;;1.00;0.90;;;14.40;99.90;;;;;;5026743;28;21020;-79
2021/05/19 07:11:41;;;;;;;2.93;1.67;;;14.40;1.00;;;;;;5022054;28;20521;-78
2021/05/19 07:14:15;;;;;;;1.23;1.13;;;14.30;99.90;;;;;;5021855;28;20482;-79
2021/05/19 07:16:48;;;;;;;1.67;1.23;;;14.30;99.90;;;;;;5039366;28;20480;-81
2021/05/19 07:19:16;;;;;;;1.20;1.10;;;14.20;99.90;;;;;;5021699;28;21133;-80
2021/05/19 07:21:45;;;;;;;1.50;1.40;;;14.20;99.90;;;;;;5027892;28;21263;-78
2021/05/19 07:24:13;;;;;;;1.40;1.30;;;14.20;99.90;;;;;;5026223;28;20458;-79
2021/05/19 07:26:42;;;;;;;1.20;1.10;;;14.20;99.90;;;;;;5021240;28;20472;-78
2021/05/19 07:29:12;;;;;;;2.30;1.40;;;14.20;99.90;;;;;;5023393;28;20490;-79
2021/05/19 07:31:41;;;;;;;1.57;1.17;;;14.10;99.90;;;;;;5022820;28;20489;-78
2021/05/19 07:34:09;;;;;;;1.30;1.20;;;14.10;99.90;;;;;;5021550;28;20455;-78
2021/05/19 07:36:37;;;;;;;1.50;1.40;;;14.20;99.90;;;;;;5023259;28;21064;-77
2021/05/19 07:39:07;;;;;;;1.23;1.13;;;14.20;99.90;;;;;;5023801;28;20462;-78
2021/05/19 07:41:35;;;;;;;1.77;1.10;;;14.20;99.90;;;;;;5024943;28;20521;-78
2021/05/19 07:44:03;;;;;;;1.97;1.53;;;14.30;99.90;;;;;;5026735;28;20563;-80
2021/05/19 07:46:31;;;;;;;2.10;1.90;;;14.30;99.90;;;;;;5026337;28;20505;-78
2021/05/19 07:48:58;;;;;;;1.53;1.37;;;14.30;99.90;;;;;;5026247;28;21031;-79
2021/05/19 07:51:24;;;;;;;1.30;1.20;;;14.30;99.90;;;;;;5029242;28;20461;-78
2021/05/19 07:53:53;;;;;;;4.30;1.93;;;14.30;99.90;;;;;;5025198;28;20467;-80
2021/05/19 07:56:23;;;;;;;1.87;1.60;;;14.40;99.90;;;;;;5021463;28;20821;-77
2021/05/19 07:58:54;;;;;;;2.93;1.70;;;14.40;99.90;;;;;;5024824;28;20542;-78
2021/05/19 08:01:30;;;;;;;1.47;1.37;;;14.50;99.90;;;;;;5021642;28;20965;-78
2021/05/19 08:03:57;;;;;;;5.03;1.30;;;14.50;99.90;;;;;;5025875;28;20466;-78
2021/05/19 08:06:24;;;;;;;1.97;1.53;;;14.60;99.90;;;;;;5025624;28;20543;-79
2021/05/19 08:08:50;;;;;;;1.93;1.37;;;14.60;99.90;;;;;;5024167;28;20498;-81
2021/05/19 08:11:17;;;;;;;3.23;1.50;;;14.60;99.90;;;;;;5022424;28;20460;-78
2021/05/19 08:13:46;;;;;;;2.80;1.50;;;14.70;99.90;;;;;;5027284;28;20487;-80
2021/05/19 08:16:14;;;;;;;1.33;1.23;;;14.70;99.90;;;;;;5027928;28;20476;-76
2021/05/19 08:18:41;;;;;;;1.60;1.43;;;14.70;99.90;;;;;;5024059;28;20522;-77
2021/05/19 08:21:08;;;;;;;1.40;1.30;;;14.70;99.90;;;;;;5020676;28;20891;-78
2021/05/19 08:23:36;;;;;;;1.60;1.43;;;14.60;99.90;;;;;;5024791;28;20854;-78
2021/05/19 08:26:05;;;;;;;1.83;1.30;;;14.70;99.90;;;;;;5024591;28;20449;-78
2021/05/19 08:28:33;;;;;;;1.77;1.67;;;14.80;99.90;;;;;;5023099;28;20481;-80
2021/05/19 08:31:02;;;;;;;1.60;1.43;;;14.70;99.90;;;;;;5025091;28;20446;-78
2021/05/19 08:33:43;;;;;;;1.87;1.47;;;14.70;99.90;;;;;;5026384;28;20486;-77
2021/05/19 08:36:12;;;;;;;2.30;1.70;;;14.70;99.90;;;;;;5044517;28;20456;-79
2021/05/19 08:38:40;;;;;;;2.23;1.73;;;14.70;99.90;;;;;;5025046;28;20496;-79
2021/05/19 08:41:08;;;;;;;2.13;1.63;;;14.70;99.90;;;;;;5023008;28;20460;-78
2021/05/19 08:43:36;;;;;;;1.70;1.60;;;14.70;99.90;;;;;;5026101;28;20485;-79
2021/05/19 08:46:06;;;;;;;1.93;1.60;;;14.70;99.90;;;;;;5024068;28;20460;-78
2021/05/19 08:48:34;;;;;;;3.30;1.53;;;14.60;99.90;;;;;;5026362;28;20487;-79
2021/05/19 08:51:02;;;;;;;1.60;1.50;;;14.70;99.90;;;;;;5022922;28;20462;-78
2021/05/19 08:53:31;;;;;;;1.60;1.50;;;14.70;99.90;;;;;;5026432;28;20489;-79
2021/05/19 08:55:59;;;;;;;2.10;1.27;;;14.60;99.90;;;;;;5029306;28;20533;-79
2021/05/19 08:58:27;;;;;;;1.40;1.23;;;14.70;99.90;;;;;;5025410;28;20529;-77
2021/05/19 09:00:55;;;;;;;1.40;1.30;;;14.80;99.90;;;;;;5039152;28;20464;-78
2021/05/19 09:03:23;;;;;;;2.40;1.17;;;14.90;99.90;;;;;;5023585;28;20476;-77
2021/05/19 09:05:53;;;;;;;1.03;1.00;;;15.00;99.90;;;;;;5023300;28;20459;-78
2021/05/19 09:08:21;;;;;;;1.30;0.90;;;15.10;99.90;;;;;;5027357;28;20474;-79
2021/05/19 09:10:59;;;;;;;2.73;1.00;;;15.10;99.90;;;;;;5023424;28;20462;-78
2021/05/19 09:13:32;;;;;;;3.03;1.03;;;15.10;99.90;;;;;;5020775;28;20574;-78
2021/05/19 09:16:00;;;;;;;0.90;0.90;;;15.10;99.90;;;;;;5026768;28;20481;-78
2021/05/19 09:18:46;;;;;;;1.53;0.90;;;15.20;99.90;;;;;;5019184;28;21004;-78
2021/05/19 09:21:39;;;;;;;0.90;0.90;;;15.30;99.90;;;;;;5024229;28;20465;-78
2021/05/19 09:24:10;;;;;;;1.00;1.00;;;15.40;99.90;;;;;;5024163;28;20446;-77
2021/05/19 09:26:54;;;;;;;2.40;1.00;;;15.30;99.90;;;;;;5025497;28;20468;-77
2021/05/19 09:29:24;;;;;;;1.80;1.20;;;15.40;99.90;;;;;;5019958;28;20480;-78
2021/05/19 09:31:56;;;;;;;1.57;1.00;;;15.40;99.90;;;;;;5023294;28;21018;-78
2021/05/19 09:34:28;;;;;;;0.97;0.80;;;15.50;99.90;;;;;;5026976;28;20958;-78
2021/05/19 09:37:14;;;;;;;1.00;0.90;;;15.50;99.90;;;;;;5025684;28;20459;-78
2021/05/19 09:39:46;;;;;;;0.80;0.80;;;15.60;99.90;;;;;;5036358;28;20453;-79
2021/05/19 09:42:14;;;;;;;1.10;1.00;;;15.80;99.90;;;;;;5022272;28;20559;-78
2021/05/19 09:44:44;;;;;;;0.70;0.70;;;15.80;99.90;;;;;;5024723;28;20462;-78
2021/05/19 09:47:13;;;;;;;1.23;0.80;;;15.90;99.90;;;;;;5027209;28;20984;-79
2021/05/19 09:49:41;;;;;;;0.80;0.80;;;15.80;99.90;;;;;;5023277;28;20523;-78
2021/05/19 09:52:18;;;;;;;1.00;0.73;;;15.90;99.90;;;;;;5021709;28;20482;-78
2021/05/19 09:54:45;;;;;;;1.10;0.70;;;16.00;99.90;;;;;;5021300;28;20448;-77
2021/05/19 09:57:17;;;;;;;0.80;0.70;;;16.10;99.90;;;;;;5026067;28;20526;-77
2021/05/19 09:59:50;;;;;;;0.70;0.60;;;16.20;99.90;;;;;;5022463;28;20454;-77
2021/05/19 10:02:20;;;;;;;0.60;0.60;;;16.20;99.90;;;;;;5018827;28;20530;-76
2021/05/19 10:04:51;;;;;;;0.50;0.50;;;16.20;99.90;;;;;;5022182;28;20450;-80
2021/05/19 10:07:20;;;;;;;2.53;0.70;;;16.30;99.90;;;;;;5020079;28;20479;-78
2021/05/19 10:09:48;;;;;;;1.83;1.00;;;16.40;99.90;;;;;;5020371;28;20484;-78
2021/05/19 10:12:17;;;;;;;1.53;1.07;;;16.50;99.90;;;;;;5019054;28;20471;-77
2021/05/19 10:14:46;;;;;;;1.43;0.60;;;16.50;99.90;;;;;;5021265;28;20812;-79
2021/05/19 10:17:16;;;;;;;0.50;0.50;;;16.50;99.90;;;;;;5030081;28;20455;-79
2021/05/19 10:19:49;;;;;;;1.17;0.50;;;16.50;99.90;;;;;;5025601;28;20479;-79
2021/05/19 10:22:20;;;;;;;1.67;1.57;;;16.60;99.90;;;;;;5028062;28;20477;-78
2021/05/19 10:24:49;;;;;;;1.00;0.60;;;16.60;99.90;;;;;;5024712;28;20449;-79
2021/05/19 10:27:19;;;;;;;3.40;0.70;;;16.60;99.90;;;;;;5023266;28;20457;-77
2021/05/19 10:29:53;;;;;;;0.60;0.60;;;16.60;99.90;;;;;;5028592;28;20468;-76
2021/05/19 10:32:30;;;;;;;0.97;0.67;;;16.60;99.90;;;;;;5027329;28;20503;-77
2021/05/19 10:34:59;;;;;;;1.47;0.70;;;16.60;99.90;;;;;;5044639;28;20457;-78
2021/05/19 10:37:48;;;;;;;1.37;0.80;;;16.70;99.90;;;;;;5054475;28;20457;-77
2021/05/19 10:40:30;;;;;;;0.80;0.80;;;16.70;99.90;;;;;;5022344;28;20984;-79
2021/05/19 10:43:03;;;;;;;1.00;0.70;;;16.80;99.90;;;;;;5023059;28;20476;-77
2021/05/19 10:45:46;;;;;;;0.67;0.60;;;16.80;99.90;;;;;;5024752;28;20557;-76
2021/05/19 10:48:35;;;;;;;1.53;0.80;;;16.90;99.90;;;;;;5030620;28;20540;-77
2021/05/19 10:51:30;;;;;;;0.60;0.60;;;17.00;99.90;;;;;;5023848;28;20496;-77
2021/05/19 11:00:15;;;;;;;1.40;0.80;;;17.30;99.90;;;;;;5028622;28;20460;-77
2021/05/19 11:03:12;;;;;;;0.70;0.60;;;17.40;99.90;;;;;;5026036;28;20537;-76
2021/05/19 11:06:13;;;;;;;4.10;0.70;;;17.40;99.90;;;;;;5020225;28;20450;-78
2021/05/19 11:08:42;;;;;;;2.43;0.80;;;17.40;99.90;;;;;;5024399;28;20455;-75
2021/05/19 11:11:32;;;;;;;0.80;0.67;;;17.40;99.90;;;;;;5024322;28;20889;-78
2021/05/19 11:14:22;;;;;;;1.17;0.80;;;17.50;99.90;;;;;;5022106;28;20458;-79
2021/05/19 11:16:59;;;;;;;3.63;0.90;;;17.60;99.90;;;;;;5047273;28;20458;-78
2021/05/19 11:19:32;;;;;;;1.93;0.60;;;17.70;99.90;;;;;;5063186;28;20454;-78
2021/05/19 11:22:08;;;;;;;1.00;0.57;;;17.60;99.90;;;;;;5024008;28;20513;-78
2021/05/19 11:24:56;;;;;;;1.70;0.70;;;17.60;99.90;;;;;;5017369;28;20528;-80
2021/05/19 11:27:30;;;;;;;2.30;0.70;;;17.70;99.90;;;;;;5023816;28;20759;-77
2021/05/19 11:29:59;;;;;;;1.40;0.60;;;17.70;99.90;;;;;;5020047;28;21093;-78
2021/05/19 11:32:28;;;;;;;0.70;0.70;;;17.70;99.90;;;;;;5056212;28;20470;-77
2021/05/19 11:35:12;;;;;;;0.50;0.50;;;17.80;99.90;;;;;;5023396;28;20954;-77
2021/05/19 11:37:53;;;;;;;2.17;0.80;;;17.80;99.90;;;;;;5022335;28;20449;-77
2021/05/19 11:40:21;;;;;;;1.67;0.70;;;17.70;99.90;;;;;;5018676;28;20466;-78
2021/05/19 11:42:55;;;;;;;0.70;0.60;;;17.80;99.90;;;;;;5021595;28;20476;-77
2021/05/19 11:45:24;;;;;;;1.27;0.80;;;17.90;99.90;;;;;;5022638;28;20517;-75
2021/05/19 11:47:51;;;;;;;1.80;0.60;;;17.90;99.90;;;;;;5022579;28;20957;-77
2021/05/19 11:50:22;;;;;;;1.17;0.60;;;17.90;99.90;;;;;;5027249;28;20822;-77
2021/05/19 11:52:54;;;;;;;0.70;0.70;;;18.00;99.90;;;;;;5021340;28;20483;-79
2021/05/19 11:55:31;;;;;;;0.63;0.63;;;18.00;99.90;;;;;;5023194;28;20666;-78
2021/05/19 11:58:17;;;;;;;1.00;0.77;;;18.10;99.90;;;;;;5021157;28;20449;-79
2021/05/19 12:00:47;;;;;;;0.90;0.67;;;18.00;99.90;;;;;;5022507;28;20446;-78
2021/05/19 12:03:17;;;;;;;0.60;0.60;;;18.10;99.90;;;;;;5017745;28;20478;-78
2021/05/19 12:05:51;;;;;;;1.03;0.70;;;18.10;99.90;;;;;;5017719;28;20996;-76
2021/05/19 12:08:21;;;;;;;0.50;0.50;;;18.10;99.90;;;;;;5020621;28;20459;-75
2021/05/19 12:11:03;;;;;;;0.87;0.87;;;18.20;99.90;;;;;;5020130;28;20485;-77
2021/05/19 12:13:36;;;;;;;0.73;0.60;;;18.10;99.90;;;;;;5021983;28;20502;-78
2021/05/19 12:16:05;;;;;;;0.70;0.60;;;18.10;99.90;;;;;;5021693;28;20970;-79
2021/05/19 12:18:32;;;;;;;1.70;0.70;;;18.10;99.90;;;;;;5020929;28;20455;-80
2021/05/19 12:21:07;;;;;;;1.43;0.60;;;18.10;99.90;;;;;;5037502;28;20564;-79
2021/05/19 12:23:36;;;;;;;0.67;0.67;;;18.10;99.90;;;;;;5020256;28;20480;-79
2021/05/19 12:26:04;;;;;;;0.70;0.70;;;18.10;99.90;;;;;;5023052;28;20512;-78
2021/05/19 12:28:34;;;;;;;0.90;0.70;;;18.10;99.90;;;;;;5016589;28;20464;-78
2021/05/19 12:31:02;;;;;;;0.60;0.60;;;18.10;98.30;;;;;;5025357;28;20295;-79
2021/05/19 12:33:37;;;;;;;1.30;0.70;;;18.00;98.40;;;;;;5030191;28;20486;-78
2021/05/19 12:36:05;;;;;;;1.43;0.80;;;18.10;98.90;;;;;;5022485;28;20904;-78
2021/05/19 12:38:45;;;;;;;1.17;0.60;;;18.10;93.40;;;;;;5018381;28;20468;-80
2021/05/19 12:41:12;;;;;;;1.83;0.60;;;17.90;93.80;;;;;;5027212;28;20450;-78
2021/05/19 12:43:41;;;;;;;4.50;0.73;;;18.00;95.50;;;;;;5026852;28;21001;-78
2021/05/19 12:46:14;;;;;;;0.80;0.80;;;18.00;92.40;;;;;;5019321;28;20456;-78
2021/05/19 12:49:05;;;;;;;1.00;0.60;;;18.00;94.40;;;;;;5023240;28;20483;-78
2021/05/19 12:51:55;;;;;;;0.70;0.50;;;18.10;96.40;;;;;;5023770;28;20494;-77
2021/05/19 12:54:28;;;;;;;1.80;0.53;;;18.10;96.60;;;;;;5025365;28;20962;-77
2021/05/19 12:57:05;;;;;;;2.30;0.70;;;18.10;97.90;;;;;;5025188;28;20455;-79
2021/05/19 12:59:57;;;;;;;1.57;0.70;;;18.10;96.70;;;;;;5059131;28;20451;-78
2021/05/19 13:02:26;;;;;;;1.30;0.60;;;18.10;95.90;;;;;;5022012;28;20540;-78
2021/05/19 13:04:56;;;;;;;1.67;0.70;;;18.10;97.50;;;;;;5023189;28;20441;-79
2021/05/19 13:07:25;;;;;;;1.10;0.70;;;18.10;96.50;;;;;;5023958;28;20505;-78
2021/05/19 13:10:17;;;;;;;2.63;0.80;;;18.10;95.80;;;;;;5027153;28;20472;-79
2021/05/19 13:13:09;;;;;;;3.00;1.07;;;18.00;94.30;;;;;;5019751;28;20479;-80
2021/05/19 13:15:41;;;;;;;4.10;0.80;;;18.00;96.80;;;;;;5024923;28;20451;-79